createdAt,value
2017-10-21T00:00:33.935Z,0
2017-10-21T00:01:14.406Z,0
2017-10-21T00:01:54.886Z,0
2017-10-21T00:02:35.340Z,0
2017-10-21T00:03:15.793Z,0
2017-10-21T00:03:56.238Z,0
2017-10-21T00:04:36.706Z,0
2017-10-21T00:05:17.140Z,0
2017-10-21T00:05:57.637Z,0
2017-10-21T00:06:38.101Z,0
2017-10-21T00:07:18.572Z,0
2017-10-21T00:07:59.027Z,0
2017-10-21T00:08:39.485Z,0
2017-10-21T00:09:19.946Z,0
2017-10-21T00:10:00.404Z,0
2017-10-21T00:10:40.866Z,0
2017-10-21T00:11:21.326Z,0
2017-10-21T00:12:01.781Z,0
2017-10-21T00:12:42.230Z,0
2017-10-21T00:13:22.713Z,0
2017-10-21T00:14:03.169Z,0
2017-10-21T00:14:43.617Z,0
2017-10-21T00:15:24.063Z,0
2017-10-21T00:16:04.519Z,0
2017-10-21T00:16:44.976Z,0
2017-10-21T00:17:25.437Z,0
2017-10-21T00:18:05.894Z,0
2017-10-21T00:18:46.355Z,0
2017-10-21T00:19:26.811Z,0
2017-10-21T00:20:07.280Z,0
2017-10-21T00:20:47.730Z,0
2017-10-21T00:21:28.191Z,0
2017-10-21T00:22:08.666Z,0
2017-10-21T00:22:49.103Z,0
2017-10-21T00:23:29.559Z,0
2017-10-21T00:24:10.034Z,0
2017-10-21T00:24:50.495Z,0
2017-10-21T00:25:30.947Z,0
2017-10-21T00:26:11.395Z,0
2017-10-21T00:26:51.854Z,0
2017-10-21T00:27:32.303Z,0
2017-10-21T00:28:12.750Z,0
2017-10-21T00:28:53.204Z,0
2017-10-21T00:29:33.660Z,0
2017-10-21T00:30:14.125Z,0
2017-10-21T00:30:54.567Z,0
2017-10-21T00:31:35.037Z,0
2017-10-21T00:32:15.507Z,0
2017-10-21T00:32:55.945Z,0
2017-10-21T00:33:36.403Z,0
2017-10-21T00:34:16.856Z,0
2017-10-21T00:34:57.325Z,0
2017-10-21T00:35:37.781Z,0
2017-10-21T00:36:18.696Z,0
2017-10-21T00:36:59.202Z,0
2017-10-21T00:39:17.155Z,0
2017-10-21T00:39:57.618Z,0
2017-10-21T00:40:38.010Z,0
2017-10-21T00:41:18.456Z,0
2017-10-21T00:41:58.914Z,0
2017-10-21T00:42:39.355Z,0
2017-10-21T00:43:19.811Z,0
2017-10-21T00:44:00.259Z,0
2017-10-21T00:44:40.714Z,0
2017-10-21T00:45:21.157Z,0
2017-10-21T00:46:01.603Z,0
2017-10-21T00:46:42.041Z,0
2017-10-21T00:47:22.484Z,0
2017-10-21T00:48:02.931Z,0
2017-10-21T00:48:43.393Z,0
2017-10-21T00:49:23.836Z,0
2017-10-21T00:50:04.284Z,0
2017-10-21T00:50:44.730Z,0
2017-10-21T00:51:25.193Z,0
2017-10-21T00:52:05.648Z,0
2017-10-21T00:52:46.153Z,0
2017-10-21T00:53:26.532Z,0
2017-10-21T00:54:06.977Z,0
2017-10-21T00:54:47.451Z,0
2017-10-21T00:55:27.886Z,0
2017-10-21T00:56:08.327Z,0
2017-10-21T00:56:48.774Z,0
2017-10-21T00:57:29.228Z,0
2017-10-21T00:58:09.720Z,0
2017-10-21T00:58:50.152Z,0
2017-10-21T00:59:30.680Z,0
2017-10-21T01:00:11.054Z,0
2017-10-21T01:00:51.496Z,0
2017-10-21T01:01:31.953Z,0
2017-10-21T01:02:12.393Z,0
2017-10-21T01:02:52.854Z,0
2017-10-21T01:03:33.291Z,0
2017-10-21T01:04:13.747Z,0
2017-10-21T01:04:54.205Z,0
2017-10-21T01:05:34.655Z,0
2017-10-21T01:06:15.105Z,0
2017-10-21T01:06:55.559Z,0
2017-10-21T01:07:36.073Z,0
2017-10-21T01:08:16.526Z,0
2017-10-21T01:08:56.975Z,0
2017-10-21T01:09:37.437Z,0
2017-10-21T01:10:17.878Z,0
2017-10-21T01:10:58.328Z,0
2017-10-21T01:11:38.777Z,0
2017-10-21T01:12:19.224Z,0
2017-10-21T01:12:59.696Z,0
2017-10-21T01:13:40.155Z,0
2017-10-21T01:14:20.614Z,0
2017-10-21T01:15:01.065Z,0
2017-10-21T01:15:41.522Z,0
2017-10-21T01:16:21.981Z,0
2017-10-21T01:17:02.467Z,0
2017-10-21T01:17:42.917Z,0
2017-10-21T01:18:23.403Z,0
2017-10-21T01:19:03.858Z,0
2017-10-21T01:19:44.317Z,0
2017-10-21T01:20:24.770Z,0
2017-10-21T01:21:05.225Z,0
2017-10-21T01:21:45.671Z,0
2017-10-21T01:22:26.119Z,0
2017-10-21T01:23:06.645Z,0
2017-10-21T01:25:04.385Z,0
2017-10-21T01:25:44.840Z,0
2017-10-21T01:26:25.294Z,0
2017-10-21T01:27:05.758Z,0
2017-10-21T01:27:46.205Z,0
2017-10-21T01:28:26.662Z,0
2017-10-21T01:29:07.110Z,0
2017-10-21T01:29:47.567Z,0
2017-10-21T01:30:28.025Z,0
2017-10-21T01:31:08.478Z,0
2017-10-21T01:31:48.935Z,0
2017-10-21T01:32:29.381Z,0
2017-10-21T01:33:09.837Z,0
2017-10-21T01:33:50.286Z,0
2017-10-21T01:34:30.746Z,0
2017-10-21T01:35:11.197Z,0
2017-10-21T01:35:51.647Z,0
2017-10-21T01:36:32.126Z,0
2017-10-21T01:37:12.571Z,0
2017-10-21T01:37:53.016Z,0
2017-10-21T01:38:33.477Z,0
2017-10-21T01:39:13.922Z,0
2017-10-21T01:39:54.375Z,0
2017-10-21T01:40:34.823Z,0
2017-10-21T01:41:15.281Z,0
2017-10-21T01:41:55.743Z,0
2017-10-21T01:42:36.221Z,0
2017-10-21T01:43:16.686Z,0
2017-10-21T01:43:57.143Z,0
2017-10-21T01:44:37.595Z,0
2017-10-21T01:45:18.068Z,0
2017-10-21T01:45:58.517Z,0
2017-10-21T01:46:38.970Z,0
2017-10-21T01:47:19.432Z,0
2017-10-21T01:47:59.878Z,0
2017-10-21T01:48:40.326Z,0
2017-10-21T01:49:20.776Z,0
2017-10-21T01:50:01.233Z,0
2017-10-21T01:50:41.675Z,0
2017-10-21T01:51:22.130Z,0
2017-10-21T01:52:02.583Z,0
2017-10-21T01:52:43.039Z,0
2017-10-21T01:53:23.494Z,0
2017-10-21T01:54:03.942Z,0
2017-10-21T01:54:44.404Z,0
2017-10-21T01:55:24.858Z,0
2017-10-21T01:56:05.312Z,0
2017-10-21T01:56:45.773Z,0
2017-10-21T01:57:26.252Z,0
2017-10-21T01:58:06.705Z,0
2017-10-21T01:58:47.168Z,0
2017-10-21T01:59:27.608Z,0
2017-10-21T02:00:08.058Z,0
2017-10-21T02:00:48.495Z,0
2017-10-21T02:01:28.946Z,0
2017-10-21T02:02:09.399Z,0
2017-10-21T02:02:49.852Z,0
2017-10-21T02:03:30.297Z,0
2017-10-21T02:04:10.738Z,0
2017-10-21T02:04:51.187Z,0
2017-10-21T02:05:31.646Z,0
2017-10-21T02:06:12.099Z,0
2017-10-21T02:06:52.553Z,0
2017-10-21T02:07:33.004Z,0
2017-10-21T02:08:13.455Z,0
2017-10-21T02:08:53.915Z,0
2017-10-21T02:09:34.374Z,0
2017-10-21T02:10:14.831Z,0
2017-10-21T02:10:55.280Z,0
2017-10-21T02:11:35.742Z,0
2017-10-21T02:12:16.198Z,0
2017-10-21T02:12:56.658Z,0
2017-10-21T02:13:37.121Z,0
2017-10-21T02:14:17.582Z,0
2017-10-21T02:14:58.044Z,0
2017-10-21T02:15:38.490Z,0
2017-10-21T02:16:18.979Z,0
2017-10-21T02:16:59.436Z,0
2017-10-21T02:17:39.885Z,0
2017-10-21T02:18:20.339Z,0
2017-10-21T02:19:00.788Z,0
2017-10-21T02:19:41.255Z,0
2017-10-21T02:20:21.704Z,0
2017-10-21T02:21:02.153Z,0
2017-10-21T02:21:42.611Z,0
2017-10-21T02:22:23.065Z,0
2017-10-21T02:23:03.517Z,0
2017-10-21T02:23:43.973Z,0
2017-10-21T02:24:24.427Z,0
2017-10-21T02:25:04.893Z,0
2017-10-21T02:25:45.363Z,0
2017-10-21T02:26:25.797Z,0
2017-10-21T02:27:06.252Z,0
2017-10-21T02:27:46.705Z,0
2017-10-21T02:28:27.163Z,0
2017-10-21T02:29:07.616Z,0
2017-10-21T02:29:48.074Z,0
2017-10-21T02:30:28.527Z,0
2017-10-21T02:31:08.977Z,0
2017-10-21T02:31:49.449Z,0
2017-10-21T02:32:29.889Z,0
2017-10-21T02:33:10.347Z,0
2017-10-21T02:33:50.801Z,0
2017-10-21T02:34:31.256Z,0
2017-10-21T02:35:11.724Z,0
2017-10-21T02:35:52.178Z,0
2017-10-21T02:36:32.629Z,0
2017-10-21T02:37:13.111Z,0
2017-10-21T02:37:53.651Z,0
2017-10-21T02:38:34.027Z,0
2017-10-21T02:39:14.475Z,0
2017-10-21T02:39:54.943Z,0
2017-10-21T02:40:35.429Z,0
2017-10-21T02:41:15.877Z,0
2017-10-21T02:41:56.350Z,0
2017-10-21T02:42:36.885Z,0
2017-10-21T02:43:17.330Z,0
2017-10-21T02:43:57.861Z,0
2017-10-21T02:44:38.404Z,0
2017-10-21T02:45:18.980Z,0
2017-10-21T02:45:59.578Z,0
2017-10-21T02:46:40.212Z,0
2017-10-21T02:47:20.721Z,0
2017-10-21T02:48:01.267Z,0
2017-10-21T02:48:42.039Z,0
2017-10-21T02:49:22.514Z,0
2017-10-21T02:50:02.974Z,0
2017-10-21T02:50:43.423Z,0
2017-10-21T02:51:23.886Z,0
2017-10-21T02:52:04.336Z,0
2017-10-21T02:52:44.789Z,0
2017-10-21T02:53:25.247Z,0
2017-10-21T02:54:05.704Z,0
2017-10-21T02:54:46.165Z,0
2017-10-21T02:55:26.622Z,0
2017-10-21T02:56:07.074Z,0
2017-10-21T02:56:47.522Z,0
2017-10-21T02:57:27.957Z,0
2017-10-21T02:58:08.405Z,0
2017-10-21T02:58:48.852Z,0
2017-10-21T02:59:29.297Z,0
2017-10-21T03:00:09.739Z,0
2017-10-21T03:00:50.203Z,0
2017-10-21T03:01:30.661Z,0
2017-10-21T03:02:11.088Z,0
2017-10-21T03:02:51.532Z,0
2017-10-21T03:03:31.993Z,0
2017-10-21T03:04:12.428Z,0
2017-10-21T03:04:52.883Z,0
2017-10-21T03:05:33.338Z,0
2017-10-21T03:06:13.780Z,0
2017-10-21T03:06:54.223Z,0
2017-10-21T03:07:34.682Z,0
2017-10-21T03:08:15.134Z,0
2017-10-21T03:08:55.593Z,0
2017-10-21T03:09:36.046Z,0
2017-10-21T03:10:16.495Z,0
2017-10-21T03:10:56.940Z,0
2017-10-21T03:11:37.393Z,0
2017-10-21T03:12:17.908Z,0
2017-10-21T03:12:58.346Z,0
2017-10-21T03:13:38.800Z,0
2017-10-21T03:14:19.262Z,0
2017-10-21T03:14:59.696Z,0
2017-10-21T03:15:40.155Z,0
2017-10-21T03:16:20.596Z,0
2017-10-21T03:17:01.041Z,0
2017-10-21T03:17:41.488Z,0
2017-10-21T03:18:21.934Z,0
2017-10-21T03:19:02.395Z,0
2017-10-21T03:19:42.843Z,0
2017-10-21T03:20:23.296Z,0
2017-10-21T03:21:03.754Z,0
2017-10-21T03:21:44.218Z,0
2017-10-21T03:22:24.674Z,0
2017-10-21T03:23:05.119Z,0
2017-10-21T03:23:45.578Z,0
2017-10-21T03:24:26.051Z,0
2017-10-21T03:25:06.468Z,0
2017-10-21T03:25:47.121Z,0
2017-10-21T03:26:27.559Z,0
2017-10-21T03:27:08.003Z,0
2017-10-21T03:27:48.446Z,0
2017-10-21T03:28:28.896Z,0
2017-10-21T03:29:09.345Z,0
2017-10-21T03:29:49.806Z,0
2017-10-21T03:30:30.254Z,0
2017-10-21T03:31:10.706Z,0
2017-10-21T03:31:51.160Z,0
2017-10-21T03:32:31.618Z,0
2017-10-21T03:33:12.070Z,0
2017-10-21T03:33:52.532Z,0
2017-10-21T03:34:32.988Z,0
2017-10-21T03:35:13.453Z,0
2017-10-21T03:35:53.913Z,0
2017-10-21T03:36:34.390Z,0
2017-10-21T03:37:14.826Z,0
2017-10-21T03:37:55.282Z,0
2017-10-21T03:38:35.740Z,0
2017-10-21T03:39:16.204Z,0
2017-10-21T03:39:56.652Z,0
2017-10-21T03:40:37.093Z,0
2017-10-21T03:41:17.555Z,0
2017-10-21T03:41:58.010Z,0
2017-10-21T03:42:38.484Z,0
2017-10-21T03:43:18.938Z,0
2017-10-21T03:43:59.396Z,0
2017-10-21T03:44:39.852Z,0
2017-10-21T03:45:20.304Z,0
2017-10-21T03:46:00.742Z,0
2017-10-21T03:46:41.191Z,0
2017-10-21T03:47:21.643Z,0
2017-10-21T03:48:02.095Z,0
2017-10-21T03:48:42.559Z,0
2017-10-21T03:49:23.015Z,0
2017-10-21T03:50:03.471Z,0
2017-10-21T03:50:43.926Z,0
2017-10-21T03:51:24.380Z,0
2017-10-21T03:52:04.844Z,0
2017-10-21T03:52:45.288Z,0
2017-10-21T03:53:25.739Z,0
2017-10-21T03:54:06.182Z,0
2017-10-21T03:54:46.638Z,0
2017-10-21T03:55:27.092Z,0
2017-10-21T03:56:07.548Z,0
2017-10-21T03:56:48.004Z,0
2017-10-21T03:57:28.457Z,0
2017-10-21T03:58:08.916Z,0
2017-10-21T03:58:49.367Z,0
2017-10-21T03:59:29.820Z,0
2017-10-21T04:00:10.276Z,0
2017-10-21T04:00:50.721Z,0
2017-10-21T04:01:31.164Z,0
2017-10-21T04:02:11.611Z,0
2017-10-21T04:02:52.050Z,0
2017-10-21T04:03:32.500Z,0
2017-10-21T04:04:12.960Z,0
2017-10-21T04:04:53.402Z,0
2017-10-21T04:05:33.850Z,0
2017-10-21T04:06:14.305Z,0
2017-10-21T04:06:54.770Z,0
2017-10-21T04:07:35.234Z,0
2017-10-21T04:08:15.680Z,0
2017-10-21T04:08:56.139Z,0
2017-10-21T04:09:36.588Z,0
2017-10-21T04:10:17.051Z,0
2017-10-21T04:10:57.505Z,0
2017-10-21T04:11:37.964Z,0
2017-10-21T04:12:18.420Z,0
2017-10-21T04:12:58.895Z,0
2017-10-21T04:13:39.324Z,0
2017-10-21T04:14:19.777Z,0
2017-10-21T04:15:00.221Z,0
2017-10-21T04:15:40.681Z,0
2017-10-21T04:16:21.122Z,0
2017-10-21T04:17:01.699Z,0
2017-10-21T04:17:42.055Z,0
2017-10-21T04:18:22.514Z,0
2017-10-21T04:19:02.971Z,0
2017-10-21T04:19:43.436Z,0
2017-10-21T04:20:23.896Z,0
2017-10-21T04:21:04.341Z,0
2017-10-21T04:21:44.789Z,0
2017-10-21T04:22:25.288Z,0
2017-10-21T04:23:05.766Z,0
2017-10-21T04:23:46.221Z,0
2017-10-21T04:24:26.670Z,0
2017-10-21T04:25:07.126Z,0
2017-10-21T04:25:47.568Z,0
2017-10-21T04:26:28.019Z,0
2017-10-21T04:27:08.473Z,0
2017-10-21T04:27:48.935Z,0
2017-10-21T04:28:29.388Z,0
2017-10-21T04:29:09.853Z,0
2017-10-21T04:29:50.324Z,0
2017-10-21T04:30:30.762Z,0
2017-10-21T04:31:11.211Z,0
2017-10-21T04:31:51.663Z,0
2017-10-21T04:32:32.126Z,0
2017-10-21T04:33:12.577Z,0
2017-10-21T04:33:53.036Z,0
2017-10-21T04:34:33.499Z,0
2017-10-21T04:35:13.962Z,0
2017-10-21T04:35:54.416Z,0
2017-10-21T04:36:34.871Z,0
2017-10-21T04:37:15.333Z,0
2017-10-21T04:37:55.783Z,0
2017-10-21T04:38:36.241Z,0
2017-10-21T04:39:16.696Z,0
2017-10-21T04:39:57.140Z,0
2017-10-21T04:40:37.597Z,0
2017-10-21T04:41:18.051Z,0
2017-10-21T04:41:58.512Z,0
2017-10-21T04:42:38.957Z,0
2017-10-21T04:43:19.402Z,0
2017-10-21T04:43:59.846Z,0
2017-10-21T04:44:40.327Z,0
2017-10-21T04:45:20.784Z,0
2017-10-21T04:46:01.237Z,0
2017-10-21T04:46:41.690Z,0
2017-10-21T04:47:22.137Z,0
2017-10-21T04:48:02.590Z,0
2017-10-21T04:48:43.051Z,0
2017-10-21T04:49:23.497Z,0
2017-10-21T04:50:03.957Z,0
2017-10-21T04:50:44.418Z,0
2017-10-21T04:51:24.879Z,0
2017-10-21T04:52:05.353Z,0
2017-10-21T04:52:45.790Z,0
2017-10-21T04:53:26.263Z,0
2017-10-21T04:54:06.703Z,0
2017-10-21T04:54:47.148Z,0
2017-10-21T04:55:27.596Z,0
2017-10-21T04:56:08.060Z,0
2017-10-21T04:56:48.514Z,0
2017-10-21T04:57:28.983Z,0
2017-10-21T04:58:09.432Z,0
2017-10-21T04:58:49.888Z,0
2017-10-21T04:59:30.349Z,0
2017-10-21T05:00:10.788Z,0
2017-10-21T05:00:51.253Z,0
2017-10-21T05:01:31.695Z,0
2017-10-21T05:02:12.142Z,0
2017-10-21T05:02:52.582Z,0
2017-10-21T05:03:33.034Z,0
2017-10-21T05:04:13.491Z,0
2017-10-21T05:04:53.958Z,0
2017-10-21T05:05:34.421Z,0
2017-10-21T05:06:14.870Z,0
2017-10-21T05:06:55.327Z,0
2017-10-21T05:07:35.789Z,0
2017-10-21T05:08:16.243Z,0
2017-10-21T05:08:56.680Z,0
2017-10-21T05:09:37.128Z,0
2017-10-21T05:10:17.579Z,0
2017-10-21T05:10:58.047Z,0
2017-10-21T05:11:38.507Z,0
2017-10-21T05:12:18.961Z,0
2017-10-21T05:12:59.417Z,0
2017-10-21T05:13:39.873Z,0
2017-10-21T05:14:20.330Z,0
2017-10-21T05:15:00.784Z,0
2017-10-21T05:15:41.223Z,0
2017-10-21T05:16:21.669Z,0
2017-10-21T05:17:02.121Z,0
2017-10-21T05:17:42.586Z,0
2017-10-21T05:18:23.028Z,0
2017-10-21T05:19:03.502Z,0
2017-10-21T05:19:43.955Z,0
2017-10-21T05:20:24.412Z,0
2017-10-21T05:21:04.866Z,0
2017-10-21T05:21:45.319Z,0
2017-10-21T05:22:25.767Z,0
2017-10-21T05:23:06.224Z,0
2017-10-21T05:23:46.683Z,0
2017-10-21T05:24:27.141Z,0
2017-10-21T05:25:07.608Z,0
2017-10-21T05:25:48.052Z,0
2017-10-21T05:26:28.507Z,0
2017-10-21T05:27:08.953Z,0
2017-10-21T05:27:49.433Z,0
2017-10-21T05:28:29.883Z,0
2017-10-21T05:29:10.334Z,0
2017-10-21T05:29:50.784Z,0
2017-10-21T05:30:31.243Z,0
2017-10-21T05:31:11.701Z,0
2017-10-21T05:31:52.160Z,0
2017-10-21T05:32:32.621Z,0
2017-10-21T05:33:13.070Z,0
2017-10-21T05:33:53.512Z,0
2017-10-21T05:34:33.963Z,0
2017-10-21T05:35:14.422Z,0
2017-10-21T05:35:54.885Z,0
2017-10-21T05:36:35.339Z,0
2017-10-21T05:37:15.800Z,0
2017-10-21T05:37:56.258Z,0
2017-10-21T05:38:36.730Z,0
2017-10-21T05:39:17.279Z,0
2017-10-21T05:39:57.694Z,0
2017-10-21T05:40:38.154Z,0
2017-10-21T05:41:18.602Z,0
2017-10-21T05:41:59.047Z,0
2017-10-21T05:42:39.492Z,0
2017-10-21T05:43:19.938Z,0
2017-10-21T05:44:00.383Z,0
2017-10-21T05:44:40.829Z,0
2017-10-21T05:45:21.288Z,0
2017-10-21T05:46:01.733Z,0
2017-10-21T05:46:42.189Z,0
2017-10-21T05:47:22.642Z,0
2017-10-21T05:48:03.099Z,0
2017-10-21T05:48:43.557Z,0
2017-10-21T05:49:23.999Z,0
2017-10-21T05:50:04.478Z,0
2017-10-21T05:50:44.939Z,0
2017-10-21T05:51:25.388Z,0
2017-10-21T05:52:05.848Z,0
2017-10-21T05:52:46.300Z,0
2017-10-21T05:53:26.756Z,0
2017-10-21T05:54:07.200Z,0
2017-10-21T05:54:47.653Z,0
2017-10-21T05:55:28.111Z,0
2017-10-21T05:56:08.576Z,0
2017-10-21T05:56:49.018Z,0
2017-10-21T05:57:29.463Z,0
2017-10-21T05:58:09.934Z,0
2017-10-21T05:58:50.381Z,0
2017-10-21T05:59:30.836Z,0
2017-10-21T06:00:11.299Z,0
2017-10-21T06:00:51.747Z,0
2017-10-21T06:01:32.203Z,0
2017-10-21T06:02:12.636Z,0
2017-10-21T06:02:53.084Z,0
2017-10-21T06:03:33.541Z,0
2017-10-21T06:04:13.997Z,0
2017-10-21T06:04:54.449Z,0
2017-10-21T06:05:34.915Z,0
2017-10-21T06:06:15.363Z,0
2017-10-21T06:06:55.811Z,0
2017-10-21T06:07:36.284Z,0
2017-10-21T06:08:16.728Z,0
2017-10-21T06:08:57.184Z,0
2017-10-21T06:09:37.634Z,0
2017-10-21T06:10:18.098Z,0
2017-10-21T06:10:58.548Z,4
2017-10-21T06:11:38.998Z,4
2017-10-21T06:12:19.454Z,4
2017-10-21T06:12:59.911Z,0
2017-10-21T06:13:40.355Z,0
2017-10-21T06:14:20.920Z,0
2017-10-21T06:15:01.278Z,0
2017-10-21T06:15:41.746Z,0
2017-10-21T06:16:22.195Z,4
2017-10-21T06:17:02.644Z,4
2017-10-21T06:17:43.093Z,4
2017-10-21T06:18:23.533Z,0
2017-10-21T06:19:03.981Z,0
2017-10-21T06:19:44.418Z,0
2017-10-21T06:20:24.883Z,0
2017-10-21T06:21:05.326Z,0
2017-10-21T06:21:45.783Z,0
2017-10-21T06:22:26.243Z,0
2017-10-21T06:23:06.709Z,0
2017-10-21T06:23:47.164Z,4
2017-10-21T06:24:27.659Z,4
2017-10-21T06:25:08.094Z,4
2017-10-21T06:25:48.639Z,4
2017-10-21T06:26:29.099Z,4
2017-10-21T06:27:09.549Z,4
2017-10-21T06:27:49.998Z,0
2017-10-21T06:28:30.460Z,0
2017-10-21T06:29:10.914Z,0
2017-10-21T06:29:51.364Z,0
2017-10-21T06:30:31.824Z,0
2017-10-21T06:31:12.294Z,0
2017-10-21T06:31:52.750Z,0
2017-10-21T06:32:33.202Z,0
2017-10-21T06:33:13.667Z,0
2017-10-21T06:33:54.116Z,0
2017-10-21T06:34:34.561Z,0
2017-10-21T06:35:15.031Z,0
2017-10-21T06:35:55.471Z,0
2017-10-21T06:36:35.928Z,0
2017-10-21T06:37:16.375Z,0
2017-10-21T06:37:56.824Z,0
2017-10-21T06:38:37.280Z,0
2017-10-21T06:39:17.732Z,0
2017-10-21T06:39:58.177Z,0
2017-10-21T06:40:38.641Z,4
2017-10-21T06:41:19.105Z,0
2017-10-21T06:41:59.557Z,0
2017-10-21T06:42:40.019Z,4
2017-10-21T06:43:20.477Z,4
2017-10-21T06:44:00.944Z,4
2017-10-21T06:44:41.394Z,0
2017-10-21T06:45:21.864Z,0
2017-10-21T06:46:02.327Z,0
2017-10-21T06:46:42.787Z,4
2017-10-21T06:47:23.231Z,4
2017-10-21T06:48:03.685Z,4
2017-10-21T06:48:44.164Z,4
2017-10-21T06:49:24.635Z,0
2017-10-21T06:50:05.071Z,4
2017-10-21T06:50:45.526Z,4
2017-10-21T06:51:26.000Z,4
2017-10-21T06:52:06.467Z,4
2017-10-21T06:52:46.921Z,4
2017-10-21T06:53:27.443Z,4
2017-10-21T06:54:07.956Z,0
2017-10-21T06:54:48.468Z,0
2017-10-21T06:55:28.898Z,4
2017-10-21T06:56:09.370Z,4
2017-10-21T06:56:49.807Z,4
2017-10-21T06:57:30.264Z,4
2017-10-21T06:58:10.697Z,4
2017-10-21T06:58:51.125Z,4
2017-10-21T06:59:31.527Z,4
2017-10-21T07:00:11.982Z,4
2017-10-21T07:00:52.450Z,4
2017-10-21T07:01:32.902Z,4
2017-10-21T07:02:13.548Z,0
2017-10-21T07:02:53.855Z,4
2017-10-21T07:05:27.985Z,4
2017-10-21T07:07:26.263Z,8
2017-10-21T07:08:06.569Z,8
2017-10-21T07:08:47.030Z,8
2017-10-21T07:09:27.467Z,8
2017-10-21T07:10:07.925Z,8
2017-10-21T07:10:48.370Z,12
2017-10-21T07:11:28.827Z,52
2017-10-21T07:12:09.340Z,40
2017-10-21T07:12:49.784Z,36
2017-10-21T07:13:30.231Z,40
2017-10-21T07:14:10.679Z,16
2017-10-21T07:14:51.405Z,12
2017-10-21T07:15:32.174Z,12
2017-10-21T07:16:12.615Z,16
2017-10-21T07:16:53.076Z,16
2017-10-21T07:17:33.532Z,16
2017-10-21T07:18:14.015Z,16
2017-10-21T07:18:54.469Z,20
2017-10-21T07:19:34.920Z,16
2017-10-21T07:20:15.362Z,16
2017-10-21T07:20:55.810Z,16
2017-10-21T07:21:36.256Z,8
2017-10-21T07:22:16.697Z,12
2017-10-21T07:22:57.146Z,8
2017-10-21T07:23:37.586Z,8
2017-10-21T07:24:18.182Z,8
2017-10-21T07:24:58.631Z,4
2017-10-21T07:25:39.085Z,8
2017-10-21T07:26:19.547Z,8
2017-10-21T07:27:00.007Z,8
2017-10-21T07:27:40.446Z,12
2017-10-21T07:28:20.897Z,12
2017-10-21T07:29:01.351Z,12
2017-10-21T07:29:41.809Z,12
2017-10-21T07:30:22.258Z,40
2017-10-21T07:31:02.700Z,80
2017-10-21T07:31:43.211Z,56
2017-10-21T07:32:23.665Z,124
2017-10-21T07:33:04.117Z,112
2017-10-21T07:33:44.841Z,128
2017-10-21T07:34:25.294Z,28
2017-10-21T07:35:05.776Z,20
2017-10-21T07:35:46.227Z,12
2017-10-21T07:36:26.735Z,8
2017-10-21T07:37:07.140Z,8
2017-10-21T07:37:47.586Z,4
2017-10-21T07:38:28.038Z,4
2017-10-21T07:39:08.487Z,4
2017-10-21T07:39:48.941Z,4
2017-10-21T07:40:29.420Z,4
2017-10-21T07:41:09.896Z,4
2017-10-21T07:41:50.317Z,4
2017-10-21T07:42:30.783Z,4
2017-10-21T07:43:11.230Z,4
2017-10-21T07:43:51.688Z,4
2017-10-21T07:44:32.143Z,4
2017-10-21T07:45:12.604Z,8
2017-10-21T07:45:53.055Z,4
2017-10-21T07:46:33.498Z,4
2017-10-21T07:47:13.958Z,4
2017-10-21T07:47:54.420Z,4
2017-10-21T07:48:34.857Z,4
2017-10-21T07:49:15.307Z,4
2017-10-21T07:49:55.762Z,4
2017-10-21T07:50:36.199Z,4
2017-10-21T07:51:16.659Z,4
2017-10-21T07:51:57.112Z,4
2017-10-21T07:52:37.565Z,4
2017-10-21T07:53:18.056Z,8
2017-10-21T07:53:58.468Z,8
2017-10-21T07:54:38.919Z,4
2017-10-21T07:55:19.368Z,4
2017-10-21T07:55:59.849Z,4
2017-10-21T07:56:40.288Z,0
2017-10-21T07:57:20.740Z,4
2017-10-21T07:58:01.190Z,4
2017-10-21T07:58:41.645Z,4
2017-10-21T07:59:22.096Z,164
2017-10-21T08:00:02.554Z,172
2017-10-21T08:00:43.002Z,176
2017-10-21T08:01:23.494Z,180
2017-10-21T08:02:03.939Z,176
2017-10-21T08:02:44.386Z,176
2017-10-21T08:03:24.918Z,192
2017-10-21T08:04:05.368Z,204
2017-10-21T08:04:45.810Z,220
2017-10-21T08:05:26.267Z,236
2017-10-21T08:06:06.717Z,248
2017-10-21T08:06:47.174Z,264
2017-10-21T08:07:27.631Z,268
2017-10-21T08:08:08.085Z,272
2017-10-21T08:08:48.686Z,284
2017-10-21T08:09:29.127Z,284
2017-10-21T08:10:09.598Z,276
2017-10-21T08:10:50.056Z,260
2017-10-21T08:11:30.509Z,260
2017-10-21T08:12:10.976Z,264
2017-10-21T08:12:51.404Z,268
2017-10-21T08:13:31.863Z,264
2017-10-21T08:14:12.321Z,260
2017-10-21T08:14:53.033Z,268
2017-10-21T08:15:33.397Z,268
2017-10-21T08:16:13.842Z,284
2017-10-21T08:16:54.289Z,304
2017-10-21T08:17:34.744Z,316
2017-10-21T08:18:15.200Z,284
2017-10-21T08:18:55.687Z,252
2017-10-21T08:19:36.155Z,228
2017-10-21T08:20:16.601Z,204
2017-10-21T08:20:57.055Z,184
2017-10-21T08:21:37.500Z,172
2017-10-21T08:22:17.946Z,168
2017-10-21T08:22:58.389Z,164
2017-10-21T08:23:38.835Z,144
2017-10-21T08:24:19.275Z,124
2017-10-21T08:24:59.775Z,108
2017-10-21T08:25:40.232Z,108
2017-10-21T08:26:20.693Z,120
2017-10-21T08:27:01.149Z,140
2017-10-21T08:27:41.615Z,144
2017-10-21T08:28:22.070Z,156
2017-10-21T08:29:02.520Z,180
2017-10-21T08:29:42.994Z,216
2017-10-21T08:30:25.149Z,252
2017-10-21T08:31:05.605Z,284
2017-10-21T08:31:46.057Z,264
2017-10-21T08:32:26.513Z,236
2017-10-21T08:33:06.975Z,208
2017-10-21T08:33:47.439Z,184
2017-10-21T08:34:27.888Z,160
2017-10-21T08:35:08.332Z,148
2017-10-21T08:35:48.781Z,144
2017-10-21T08:36:29.241Z,140
2017-10-21T08:37:09.693Z,136
2017-10-21T08:37:50.184Z,136
2017-10-21T08:38:30.630Z,140
2017-10-21T08:39:11.071Z,136
2017-10-21T08:39:51.556Z,128
2017-10-21T08:40:32.013Z,124
2017-10-21T08:41:12.487Z,128
2017-10-21T08:41:52.948Z,132
2017-10-21T08:42:33.412Z,132
2017-10-21T08:43:13.857Z,136
2017-10-21T08:43:54.298Z,144
2017-10-21T08:44:34.760Z,144
2017-10-21T08:45:15.218Z,148
2017-10-21T08:45:55.677Z,156
2017-10-21T08:46:36.136Z,160
2017-10-21T08:47:16.589Z,168
2017-10-21T08:47:57.036Z,184
2017-10-21T08:48:37.480Z,196
2017-10-21T08:49:17.941Z,212
2017-10-21T08:49:58.407Z,220
2017-10-21T08:50:38.871Z,240
2017-10-21T08:51:19.364Z,260
2017-10-21T08:51:59.795Z,260
2017-10-21T08:52:40.250Z,252
2017-10-21T08:53:20.708Z,260
2017-10-21T08:54:01.162Z,332
2017-10-21T08:54:41.774Z,308
2017-10-21T08:55:22.194Z,300
2017-10-21T08:56:02.620Z,280
2017-10-21T08:56:43.067Z,280
2017-10-21T08:57:23.522Z,288
2017-10-21T08:58:03.978Z,304
2017-10-21T08:58:44.446Z,540
2017-10-21T08:59:24.937Z,556
2017-10-21T09:00:05.496Z,364
2017-10-21T09:00:45.863Z,364
2017-10-21T09:01:26.323Z,368
2017-10-21T09:02:06.744Z,376
2017-10-21T09:02:47.205Z,380
2017-10-21T09:03:27.670Z,392
2017-10-21T09:04:08.124Z,400
2017-10-21T09:04:48.577Z,400
2017-10-21T09:05:29.049Z,404
2017-10-21T09:06:09.492Z,412
2017-10-21T09:06:49.967Z,428
2017-10-21T09:07:31.010Z,440
2017-10-21T09:08:11.349Z,448
2017-10-21T09:08:51.795Z,464
2017-10-21T09:09:32.381Z,476
2017-10-21T09:10:12.823Z,528
2017-10-21T09:10:53.285Z,576
2017-10-21T09:11:33.731Z,588
2017-10-21T09:12:14.204Z,664
2017-10-21T09:12:54.702Z,712
2017-10-21T09:13:35.140Z,636
2017-10-21T09:14:15.615Z,596
2017-10-21T09:14:56.056Z,544
2017-10-21T09:15:36.508Z,492
2017-10-21T09:16:16.963Z,440
2017-10-21T09:16:57.422Z,424
2017-10-21T09:17:37.947Z,424
2017-10-21T09:18:19.296Z,412
2017-10-21T09:18:59.752Z,392
2017-10-21T09:19:40.192Z,380
2017-10-21T09:20:20.644Z,376
2017-10-21T09:21:01.096Z,372
2017-10-21T09:21:41.550Z,376
2017-10-21T09:22:22.028Z,376
2017-10-21T09:23:02.476Z,364
2017-10-21T09:23:42.939Z,356
2017-10-21T09:24:23.379Z,344
2017-10-21T09:25:03.850Z,336
2017-10-21T09:25:44.401Z,328
2017-10-21T09:26:24.872Z,324
2017-10-21T09:27:05.285Z,324
2017-10-21T09:27:45.739Z,324
2017-10-21T09:28:26.291Z,332
2017-10-21T09:29:06.743Z,332
2017-10-21T09:29:47.202Z,324
2017-10-21T09:30:27.659Z,320
2017-10-21T09:31:08.120Z,316
2017-10-21T09:31:48.574Z,300
2017-10-21T09:32:29.058Z,284
2017-10-21T09:34:47.172Z,264
2017-10-21T09:35:27.761Z,264
2017-10-21T09:36:08.846Z,272
2017-10-21T09:36:50.115Z,268
2017-10-21T09:37:29.695Z,256
2017-10-21T09:38:10.116Z,248
2017-10-21T09:38:50.511Z,236
2017-10-21T09:39:30.976Z,228
2017-10-21T09:40:11.389Z,220
2017-10-21T09:40:53.733Z,216
2017-10-21T09:41:34.254Z,216
2017-10-21T09:42:17.429Z,216
2017-10-21T09:42:58.051Z,204
2017-10-21T09:43:38.790Z,196
2017-10-21T09:44:19.317Z,192
2017-10-21T09:44:59.787Z,196
2017-10-21T09:45:40.456Z,200
2017-10-21T09:46:21.950Z,204
2017-10-21T09:47:02.661Z,212
2017-10-21T09:47:43.890Z,228
2017-10-21T09:48:24.693Z,236
2017-10-21T09:49:05.082Z,248
2017-10-21T09:49:45.561Z,252
2017-10-21T09:50:26.514Z,252
2017-10-21T09:51:07.319Z,256
2017-10-21T09:51:48.118Z,256
2017-10-21T09:52:28.703Z,240
2017-10-21T09:53:09.353Z,224
2017-10-21T09:53:49.856Z,220
2017-10-21T09:54:30.506Z,224
2017-10-21T09:55:11.229Z,216
2017-10-21T09:55:52.082Z,208
2017-10-21T09:56:32.741Z,216
2017-10-21T09:57:13.538Z,244